Time;durP1;ratioP1;P1;durP2;ratioP2;P2;SDS_P1;SDS_P2;PMS_P1;PMS_P2;Temp;Humidity;BMP_temperature;BMP_pressure;BME280_temperature;BME280_humidity;BME280_pressure;Samples;Min_cycle;Max_cycle;Signal;HPM_P1;HPM_P2
2022/08/02 00:02:29;;;;;;;0.82;0.50;;;24.60;51.00;23.80;101512.00;;;;5086607;28;20041;-70
2022/08/02 00:05:15;;;;;;;0.75;0.50;;;24.60;50.90;23.80;101514.00;;;;5086575;28;20036;-70
2022/08/02 00:08:02;;;;;;;0.38;0.30;;;24.60;50.90;23.80;101519.00;;;;5087998;28;20112;-70
2022/08/02 00:10:48;;;;;;;1.42;0.70;;;24.60;50.90;23.80;101516.00;;;;5083766;28;20051;-70
2022/08/02 00:13:34;;;;;;;3.50;0.80;;;24.60;50.80;23.80;101519.00;;;;5077713;28;20423;-70
2022/08/02 00:16:20;;;;;;;2.95;0.75;;;24.60;50.80;23.80;101517.00;;;;5088670;28;20043;-70
2022/08/02 00:19:06;;;;;;;1.83;0.68;;;24.50;50.70;23.80;101517.00;;;;5085168;28;20050;-70
2022/08/02 00:21:52;;;;;;;2.03;0.60;;;24.50;50.70;23.70;101508.00;;;;5086413;28;20048;-70
2022/08/02 00:24:38;;;;;;;1.63;0.73;;;24.50;50.60;23.70;101507.00;;;;5073335;28;20035;-70
2022/08/02 00:27:24;;;;;;;0.93;0.50;;;24.50;50.60;23.70;101507.00;;;;5076716;28;20115;-70
2022/08/02 00:30:11;;;;;;;0.80;0.60;;;24.50;50.50;23.70;101513.00;;;;5083030;28;20044;-70
2022/08/02 00:32:57;;;;;;;2.13;0.85;;;24.50;50.50;23.70;101511.00;;;;5090507;28;20063;-70
2022/08/02 00:35:47;;;;;;;1.80;0.50;;;24.50;50.50;23.70;101520.00;;;;5089752;28;20470;-70
2022/08/02 00:38:33;;;;;;;1.42;0.80;;;24.50;50.60;23.70;101504.00;;;;5075551;28;20162;-70
2022/08/02 00:41:20;;;;;;;2.85;0.70;;;24.50;50.60;23.70;101505.00;;;;5087028;28;20055;-70
2022/08/02 00:44:06;;;;;;;0.73;0.40;;;24.50;50.60;23.70;101503.00;;;;5071873;28;20072;-70
2022/08/02 00:46:52;;;;;;;1.13;0.50;;;24.50;50.60;23.70;101503.00;;;;5088101;28;20040;-70
2022/08/02 00:49:39;;;;;;;0.93;0.43;;;24.50;50.70;23.70;101508.00;;;;5082289;28;20041;-70
2022/08/02 00:52:25;;;;;;;2.03;0.55;;;24.40;50.60;23.70;101503.00;;;;5089494;28;20040;-70
2022/08/02 00:55:11;;;;;;;1.27;0.55;;;24.40;50.60;23.70;101495.00;;;;5075721;28;20595;-70
2022/08/02 00:57:57;;;;;;;2.47;0.70;;;24.50;50.70;23.70;101500.00;;;;5086080;28;20036;-70
2022/08/02 01:00:43;;;;;;;0.52;0.43;;;24.40;50.80;23.70;101497.00;;;;5073984;28;20097;-70
2022/08/02 01:03:29;;;;;;;1.30;0.65;;;24.40;50.80;23.60;101495.00;;;;5093138;28;20039;-70
2022/08/02 01:06:15;;;;;;;1.80;0.60;;;24.40;50.80;23.60;101500.00;;;;5084436;28;20036;-70
2022/08/02 01:09:02;;;;;;;0.77;0.60;;;24.40;50.80;23.60;101495.00;;;;5083074;28;20089;-70
2022/08/02 01:11:48;;;;;;;1.60;0.70;;;24.40;50.80;23.60;101501.00;;;;5074111;28;20051;-70
2022/08/02 01:14:34;;;;;;;1.27;0.52;;;24.40;50.80;23.60;101507.00;;;;5083565;28;20286;-70
2022/08/02 01:17:28;;;;;;;0.73;0.43;;;24.40;50.80;23.60;101496.00;;;;5073476;28;20040;-70
2022/08/02 01:20:20;;;;;;;2.05;0.60;;;24.40;50.80;23.60;101501.00;;;;5077183;28;20039;-70
2022/08/02 01:23:32;;;;;;;2.60;0.50;;;24.40;50.90;23.60;101505.00;;;;5070781;28;20115;-70
2022/08/02 01:27:02;;;;;;;1.10;0.60;;;24.40;50.80;23.60;101498.00;;;;5074524;28;20470;-70
2022/08/02 01:29:50;;;;;;;0.75;0.50;;;24.30;50.80;23.50;101497.00;;;;5083156;28;20086;-70
2022/08/02 01:32:43;;;;;;;2.92;0.70;;;24.30;50.80;23.50;101498.00;;;;5071810;28;20478;-70
2022/08/02 01:35:34;;;;;;;0.85;0.65;;;24.30;50.80;23.50;101494.00;;;;5060462;28;20039;-70
2022/08/02 01:38:30;;;;;;;2.92;0.73;;;24.30;50.80;23.50;101497.00;;;;5075103;28;20039;-70
2022/08/02 01:41:18;;;;;;;1.23;0.50;;;24.30;50.80;23.50;101504.00;;;;5059993;28;20043;-70
2022/08/02 01:44:05;;;;;;;0.70;0.50;;;24.20;50.80;23.50;101503.00;;;;5074826;28;20039;-70
2022/08/02 01:46:51;;;;;;;1.02;0.63;;;24.30;50.80;23.50;101499.00;;;;5070990;28;20073;-70
2022/08/02 01:49:37;;;;;;;0.82;0.68;;;24.30;50.70;23.50;101498.00;;;;5074425;28;20525;-70
2022/08/02 01:52:25;;;;;;;0.80;0.60;;;24.20;50.70;23.50;101508.00;;;;5070961;28;20036;-70
2022/08/02 01:55:15;;;;;;;1.38;0.60;;;24.20;50.80;23.50;101502.00;;;;5058606;28;20036;-70
2022/08/02 01:58:03;;;;;;;1.70;0.50;;;24.20;50.80;23.50;101494.00;;;;5074043;28;20166;-70
2022/08/02 02:00:49;;;;;;;0.70;0.40;;;24.20;50.70;23.50;101493.00;;;;5069091;28;20477;-70
2022/08/02 02:03:35;;;;;;;0.40;0.40;;;24.20;50.70;23.50;101499.00;;;;5073141;28;20036;-70
2022/08/02 02:06:22;;;;;;;1.25;0.50;;;24.20;50.70;23.50;101493.00;;;;5074621;28;20043;-70
2022/08/02 02:09:08;;;;;;;1.02;0.40;;;24.20;50.60;23.50;101493.00;;;;5060131;28;20040;-70
2022/08/02 02:11:54;;;;;;;0.70;0.55;;;24.20;50.70;23.40;101489.00;;;;5071362;28;20469;-70
2022/08/02 02:14:41;;;;;;;0.90;0.47;;;24.20;50.60;23.40;101490.00;;;;5071021;28;20040;-70
2022/08/02 02:17:27;;;;;;;1.42;0.63;;;24.20;50.60;23.40;101484.00;;;;5080669;28;20042;-70
2022/08/02 02:20:17;;;;;;;1.17;0.50;;;24.20;50.60;23.40;101482.00;;;;5056907;28;20450;-70
2022/08/02 02:23:03;;;;;;;1.60;0.52;;;24.20;50.50;23.40;101475.00;;;;5072601;28;20028;-70
2022/08/02 02:25:49;;;;;;;1.25;0.50;;;24.20;50.50;23.40;101471.00;;;;5075029;28;20046;-70
2022/08/02 02:28:35;;;;;;;0.47;0.38;;;24.20;50.60;23.40;101475.00;;;;5058250;28;20615;-70
2022/08/02 02:31:21;;;;;;;0.70;0.40;;;24.20;50.60;23.40;101460.00;;;;5060620;28;20082;-70
2022/08/02 02:34:13;;;;;;;2.05;0.52;;;24.10;50.50;23.40;101461.00;;;;5067873;28;20045;-70
2022/08/02 02:37:02;;;;;;;1.35;0.70;;;24.10;50.50;23.40;101453.00;;;;5071468;28;20047;-70
2022/08/02 02:39:50;;;;;;;0.70;0.50;;;24.10;50.40;23.40;101447.00;;;;5068867;28;20037;-70
2022/08/02 02:42:36;;;;;;;1.92;0.68;;;24.10;50.50;23.30;101443.00;;;;5057332;28;20044;-70
2022/08/02 02:45:22;;;;;;;1.65;0.50;;;24.00;50.50;23.30;101448.00;;;;5073866;28;20547;-70
2022/08/02 02:48:08;;;;;;;0.90;0.68;;;24.10;50.40;23.30;101449.00;;;;5070435;28;20094;-70
2022/08/02 02:50:54;;;;;;;1.10;0.35;;;24.10;50.40;23.30;101448.00;;;;5068459;28;20043;-70
2022/08/02 02:53:41;;;;;;;1.65;0.57;;;24.10;50.50;23.30;101446.00;;;;5071360;28;20048;-70
2022/08/02 02:56:27;;;;;;;1.33;0.65;;;24.10;50.50;23.30;101451.00;;;;5071351;28;20110;-70
2022/08/02 02:59:14;;;;;;;0.88;0.50;;;24.10;50.60;23.30;101464.00;;;;5078468;28;20040;-70
2022/08/02 03:02:00;;;;;;;2.05;0.50;;;24.00;50.60;23.30;101459.00;;;;5085921;28;20062;-70
2022/08/02 03:04:47;;;;;;;3.53;0.87;;;24.00;50.50;23.30;101461.00;;;;5073795;28;20046;-70
2022/08/02 03:07:33;;;;;;;0.50;0.45;;;24.00;50.50;23.30;101466.00;;;;5076301;28;20058;-70
2022/08/02 03:10:19;;;;;;;1.80;0.52;;;24.00;50.50;23.20;101466.00;;;;5077117;28;20036;-70
2022/08/02 03:13:05;;;;;;;1.80;0.70;;;24.00;50.40;23.20;101467.00;;;;5074177;28;20079;-70
2022/08/02 03:15:54;;;;;;;0.57;0.45;;;24.00;50.40;23.20;101467.00;;;;5071403;28;20043;-70
2022/08/02 03:18:42;;;;;;;0.73;0.45;;;24.00;50.40;23.20;101459.00;;;;5093372;28;20039;-70
2022/08/02 03:21:28;;;;;;;0.40;0.40;;;24.00;50.40;23.20;101445.00;;;;5085701;28;20117;-70
2022/08/02 03:24:14;;;;;;;1.65;0.60;;;24.00;50.40;23.20;101443.00;;;;5073453;28;20058;-70
2022/08/02 03:27:01;;;;;;;0.68;0.50;;;23.90;50.40;23.20;101435.00;;;;5079495;28;20456;-70
2022/08/02 03:29:47;;;;;;;1.48;0.40;;;24.00;51.10;23.20;101432.00;;;;5056625;28;20416;-70
2022/08/02 03:32:34;;;;;;;0.70;0.30;;;23.90;50.30;23.20;101430.00;;;;5089523;28;20055;-70
2022/08/02 03:35:20;;;;;;;2.13;0.70;;;24.00;50.30;23.20;101429.00;;;;5073725;28;20040;-70
2022/08/02 03:38:06;;;;;;;2.30;0.50;;;23.90;50.30;23.20;101429.00;;;;5062189;28;20040;-70
2022/08/02 03:40:52;;;;;;;1.08;0.47;;;23.90;50.20;23.20;101427.00;;;;5071785;28;20040;-70
2022/08/02 03:43:38;;;;;;;1.65;0.40;;;23.90;50.10;23.10;101416.00;;;;5076002;28;20036;-70
2022/08/02 03:46:24;;;;;;;0.40;0.40;;;23.90;50.10;23.10;101424.00;;;;5074016;28;20036;-70
2022/08/02 03:49:11;;;;;;;0.40;0.40;;;23.80;50.20;23.10;101432.00;;;;5075800;28;20039;-70
2022/08/02 03:51:57;;;;;;;0.95;0.40;;;23.90;50.30;23.10;101431.00;;;;5075075;28;20070;-70
2022/08/02 03:54:44;;;;;;;1.15;0.60;;;23.90;50.40;23.10;101435.00;;;;5073973;28;20039;-70
2022/08/02 03:57:30;;;;;;;1.00;0.60;;;23.80;50.20;23.10;101434.00;;;;5073898;28;20051;-70
2022/08/02 04:00:20;;;;;;;0.63;0.30;;;23.80;50.30;23.10;101424.00;;;;5070888;28;20093;-70
2022/08/02 04:03:06;;;;;;;0.70;0.30;;;23.80;50.20;23.10;101438.00;;;;5077296;28;20051;-70
2022/08/02 04:05:52;;;;;;;0.98;0.50;;;23.80;50.30;23.10;101437.00;;;;5086109;28;20161;-70
2022/08/02 04:08:38;;;;;;;0.73;0.40;;;23.80;50.40;23.10;101436.00;;;;5074716;28;20059;-70
2022/08/02 04:11:30;;;;;;;0.85;0.47;;;23.80;50.30;23.10;101433.00;;;;5086436;28;20089;-70
2022/08/02 04:14:16;;;;;;;2.00;0.38;;;23.80;50.30;23.10;101435.00;;;;5072955;28;20068;-70
2022/08/02 04:17:08;;;;;;;1.45;0.50;;;23.80;50.40;23.10;101434.00;;;;5073800;28;20389;-70
2022/08/02 04:20:07;;;;;;;0.80;0.43;;;23.80;50.30;23.00;101423.00;;;;5071097;28;20037;-70
2022/08/02 04:23:03;;;;;;;0.60;0.40;;;23.80;50.20;23.00;101424.00;;;;5076105;28;20040;-70
2022/08/02 04:25:49;;;;;;;0.45;0.30;;;23.80;50.20;23.00;101426.00;;;;5071464;28;20064;-70
2022/08/02 04:28:35;;;;;;;0.40;0.40;;;23.80;50.30;23.00;101428.00;;;;5081308;28;20110;-70
2022/08/02 04:31:21;;;;;;;0.70;0.52;;;23.80;50.30;23.00;101433.00;;;;5059741;28;20119;-70
2022/08/02 04:34:07;;;;;;;1.15;0.30;;;23.80;50.30;23.00;101434.00;;;;5070413;28;20113;-70
2022/08/02 04:36:53;;;;;;;0.32;0.30;;;23.80;50.20;23.00;101440.00;;;;5087573;28;20457;-70
2022/08/02 04:39:41;;;;;;;0.60;0.40;;;23.80;50.10;23.00;101442.00;;;;5085460;28;20101;-70
2022/08/02 04:42:27;;;;;;;0.60;0.30;;;23.70;50.10;23.00;101439.00;;;;5069210;28;20040;-70
2022/08/02 04:45:13;;;;;;;1.63;0.55;;;23.70;50.00;23.00;101442.00;;;;5090120;28;20040;-70
2022/08/02 04:47:59;;;;;;;0.70;0.38;;;23.70;50.10;23.00;101444.00;;;;5066823;28;20454;-70
2022/08/02 04:50:45;;;;;;;1.15;0.40;;;23.70;50.10;23.00;101448.00;;;;5083285;28;20036;-70
2022/08/02 04:53:32;;;;;;;0.60;0.45;;;23.80;50.40;23.00;101452.00;;;;5077839;28;20111;-70
2022/08/02 04:56:18;;;;;;;0.47;0.40;;;23.70;50.00;23.00;101459.00;;;;5084569;28;20040;-70
2022/08/02 04:59:04;;;;;;;0.93;0.40;;;23.70;50.00;23.00;101447.00;;;;5083764;28;20036;-70
2022/08/02 05:01:50;;;;;;;0.50;0.47;;;23.70;50.00;23.00;101447.00;;;;5066798;28;20113;-70
2022/08/02 05:04:36;;;;;;;0.73;0.50;;;23.70;50.00;23.00;101444.00;;;;5090687;28;20579;-70
2022/08/02 05:07:22;;;;;;;0.88;0.40;;;23.70;50.00;23.00;101439.00;;;;5086406;28;20037;-70
2022/08/02 05:10:09;;;;;;;0.73;0.40;;;23.70;50.00;23.00;101444.00;;;;5084225;28;20071;-70
2022/08/02 05:12:55;;;;;;;1.73;0.70;;;23.70;49.90;23.00;101438.00;;;;5070974;28;20126;-70
2022/08/02 05:15:41;;;;;;;0.60;0.40;;;23.70;49.90;23.00;101437.00;;;;5084409;28;20035;-70
2022/08/02 05:18:30;;;;;;;0.88;0.40;;;23.80;50.00;23.00;101446.00;;;;5088605;28;20069;-70
2022/08/02 05:21:16;;;;;;;0.85;0.40;;;23.70;49.90;23.00;101450.00;;;;5087609;28;20097;-70
2022/08/02 05:24:02;;;;;;;1.83;0.60;;;23.80;50.00;23.00;101451.00;;;;5083606;28;20044;-70
2022/08/02 05:26:49;;;;;;;0.50;0.40;;;23.80;50.00;23.00;101450.00;;;;5092252;28;20084;-70
2022/08/02 05:29:35;;;;;;;1.10;0.47;;;23.70;49.90;23.00;101446.00;;;;5072161;28;20039;-70
2022/08/02 05:32:21;;;;;;;0.68;0.60;;;23.80;50.00;23.00;101448.00;;;;5086459;28;20059;-70
2022/08/02 05:35:07;;;;;;;1.77;0.80;;;23.80;50.00;23.00;101450.00;;;;5089004;28;20051;-70
2022/08/02 05:37:53;;;;;;;0.55;0.30;;;23.80;50.00;23.00;101453.00;;;;5087905;28;20123;-70
2022/08/02 05:40:39;;;;;;;0.85;0.57;;;23.80;49.90;23.00;101437.00;;;;5085326;28;20042;-70
2022/08/02 05:43:25;;;;;;;1.02;0.55;;;23.80;49.80;23.00;101440.00;;;;5085012;28;20059;-70
2022/08/02 05:46:12;;;;;;;2.10;0.70;;;23.80;49.80;23.00;101437.00;;;;5085047;28;20039;-71
2022/08/02 05:48:58;;;;;;;1.27;0.60;;;23.80;49.80;23.00;101438.00;;;;5081514;28;20079;-70
2022/08/02 05:52:16;;;;;;;1.67;0.60;;;23.80;49.80;23.10;101437.00;;;;5083108;28;20556;-70
2022/08/02 05:55:12;;;;;;;1.80;0.50;;;23.80;49.80;23.00;101432.00;;;;5052199;28;20040;-70
2022/08/02 05:58:04;;;;;;;1.80;0.60;;;23.80;50.20;23.10;101435.00;;;;5052122;28;20059;-70
2022/08/02 06:00:50;;;;;;;1.48;0.60;;;23.90;49.80;23.10;101432.00;;;;5064846;28;20040;-70
2022/08/02 06:03:39;;;;;;;0.88;0.60;;;23.80;49.80;23.10;101439.00;;;;5071291;28;20036;-70
2022/08/02 06:06:25;;;;;;;2.80;0.50;;;23.90;49.80;23.10;101448.00;;;;5064756;28;20111;-70
2022/08/02 06:09:16;;;;;;;1.40;0.68;;;23.90;49.90;23.10;101439.00;;;;5057238;28;20028;-70
2022/08/02 06:12:03;;;;;;;0.80;0.68;;;23.90;50.00;23.10;101437.00;;;;5070220;28;20047;-70
2022/08/02 06:14:49;;;;;;;4.32;0.88;;;23.90;49.90;23.10;101431.00;;;;5068977;28;20052;-70
2022/08/02 06:17:35;;;;;;;1.13;0.70;;;23.90;49.90;23.10;101428.00;;;;5085043;28;20036;-70
2022/08/02 06:20:21;;;;;;;0.98;0.70;;;24.00;49.80;23.10;101422.00;;;;5084568;28;20048;-70
2022/08/02 06:23:07;;;;;;;3.10;0.80;;;24.00;49.80;23.10;101416.00;;;;5067913;28;20059;-70
2022/08/02 06:25:53;;;;;;;1.15;0.70;;;24.00;49.80;23.10;101417.00;;;;5083494;28;20047;-70
2022/08/02 06:28:39;;;;;;;1.35;0.80;;;24.00;49.70;23.20;101416.00;;;;5067663;28;20032;-70
2022/08/02 06:31:25;;;;;;;2.53;0.95;;;24.00;49.70;23.20;101417.00;;;;5068126;28;20048;-70
2022/08/02 06:34:11;;;;;;;1.75;0.63;;;24.00;49.60;23.20;101412.00;;;;5081810;28;20047;-70
2022/08/02 06:37:20;;;;;;;2.20;0.95;;;24.00;49.70;23.20;101411.00;;;;5089220;28;20047;-70
2022/08/02 06:40:22;;;;;;;1.15;0.90;;;24.00;49.70;23.20;101419.00;;;;5057504;28;20533;-70
2022/08/02 06:43:17;;;;;;;1.33;1.08;;;24.10;49.80;23.20;101420.00;;;;5084270;28;20123;-70
2022/08/02 06:46:03;;;;;;;1.98;0.90;;;24.10;49.80;23.20;101426.00;;;;5046859;28;20040;-70
2022/08/02 06:48:49;;;;;;;3.03;1.15;;;24.10;49.80;23.20;101433.00;;;;5071565;28;20055;-70
2022/08/02 06:51:35;;;;;;;3.05;1.10;;;24.10;49.80;23.20;101425.00;;;;5057812;28;20354;-70
2022/08/02 06:54:21;;;;;;;3.28;1.30;;;24.10;49.90;23.20;101427.00;;;;5072812;28;20515;-69
2022/08/02 06:57:08;;;;;;;1.55;0.90;;;24.10;49.80;23.20;101431.00;;;;5084333;28;20051;-70
2022/08/02 06:59:54;;;;;;;1.85;1.00;;;24.10;49.90;23.20;101427.00;;;;5083699;28;20036;-70
2022/08/02 07:02:40;;;;;;;2.30;1.20;;;24.20;49.80;23.30;101418.00;;;;5086278;28;20066;-70
2022/08/02 07:05:26;;;;;;;3.20;1.17;;;24.20;49.80;23.30;101416.00;;;;5081464;28;20043;-71
2022/08/02 07:08:16;;;;;;;2.25;1.20;;;24.20;49.80;23.30;101416.00;;;;5070777;28;20438;-70
2022/08/02 07:11:03;;;;;;;2.45;0.90;;;24.20;49.90;23.30;101411.00;;;;5056849;28;20040;-70
2022/08/02 07:13:49;;;;;;;3.85;1.15;;;24.20;49.90;23.30;101411.00;;;;5079784;28;20075;-70
2022/08/02 07:16:35;;;;;;;2.72;1.08;;;24.20;49.90;23.30;101408.00;;;;5087413;28;20036;-70
2022/08/02 07:19:21;;;;;;;2.05;1.10;;;24.20;49.80;23.30;101419.00;;;;5086153;28;20461;-70
2022/08/02 07:22:07;;;;;;;4.00;1.20;;;24.20;49.90;23.30;101413.00;;;;5087251;28;20043;-70
2022/08/02 07:24:55;;;;;;;3.35;1.10;;;24.20;49.80;23.30;101421.00;;;;5082717;28;20032;-70
2022/08/02 07:27:41;;;;;;;1.77;1.10;;;24.20;49.90;23.30;101400.00;;;;5070632;28;20036;-70
2022/08/02 07:30:27;;;;;;;2.58;1.20;;;24.20;49.90;23.30;101408.00;;;;5066363;28;20042;-70
2022/08/02 07:33:13;;;;;;;1.77;1.08;;;24.30;50.00;23.30;101412.00;;;;5081843;28;20105;-71
2022/08/02 07:36:02;;;;;;;5.88;1.40;;;24.30;50.00;23.30;101398.00;;;;5087219;28;20028;-70
2022/08/02 07:38:48;;;;;;;3.00;1.10;;;24.30;49.90;23.30;101396.00;;;;5069887;28;20048;-71
2022/08/02 07:41:34;;;;;;;3.13;1.13;;;24.30;49.90;23.30;101384.00;;;;5065360;28;20043;-70
2022/08/02 07:44:20;;;;;;;2.53;1.17;;;24.30;49.90;23.30;101380.00;;;;5085495;28;20040;-70
2022/08/02 07:47:07;;;;;;;2.63;1.27;;;24.30;49.90;23.30;101378.00;;;;5089277;28;20119;-70
2022/08/02 07:49:53;;;;;;;2.72;1.30;;;24.30;50.00;23.30;101379.00;;;;5084581;28;20136;-70
2022/08/02 07:52:39;;;;;;;3.63;1.60;;;24.30;50.00;23.30;101381.00;;;;5086803;28;20047;-71
2022/08/02 07:55:26;;;;;;;3.67;1.10;;;24.30;50.00;23.40;101380.00;;;;5086239;28;20117;-70
2022/08/02 07:58:12;;;;;;;1.48;0.93;;;24.30;50.00;23.40;101378.00;;;;5086951;28;20035;-70
2022/08/02 08:00:58;;;;;;;1.52;1.10;;;24.30;50.00;23.40;101371.00;;;;5089474;28;20052;-70
2022/08/02 08:03:44;;;;;;;3.08;1.30;;;24.30;50.00;23.40;101372.00;;;;5083193;28;20051;-70
2022/08/02 08:06:30;;;;;;;4.05;1.27;;;24.30;50.00;23.40;101376.00;;;;5085737;28;20036;-70
2022/08/02 08:09:16;;;;;;;2.47;1.17;;;24.40;50.10;23.40;101375.00;;;;5082916;28;20123;-70
2022/08/02 08:12:03;;;;;;;1.77;1.15;;;24.40;50.10;23.40;101376.00;;;;5089733;28;20044;-70
2022/08/02 08:14:49;;;;;;;4.72;1.52;;;24.40;50.20;23.40;101368.00;;;;5081396;28;20798;-70
2022/08/02 08:17:36;;;;;;;2.35;1.35;;;24.40;50.10;23.40;101376.00;;;;5083384;28;20039;-70
2022/08/02 08:20:22;;;;;;;2.10;1.38;;;24.40;50.20;23.40;101370.00;;;;5067308;28;20145;-72
2022/08/02 08:23:08;;;;;;;3.90;1.50;;;24.40;50.20;23.40;101363.00;;;;5082699;28;20130;-71
2022/08/02 08:25:54;;;;;;;2.38;1.50;;;24.40;50.30;23.40;101366.00;;;;5083055;28;20154;-71
2022/08/02 08:28:40;;;;;;;4.85;1.80;;;24.40;50.20;23.40;101363.00;;;;5064114;28;20066;-71
2022/08/02 08:31:26;;;;;;;3.72;1.75;;;24.40;50.30;23.40;101360.00;;;;5084067;28;20040;-72
2022/08/02 08:34:13;;;;;;;9.35;2.50;;;24.40;50.40;23.40;101357.00;;;;5075000;28;20843;-72
2022/08/02 08:36:59;;;;;;;5.28;1.48;;;24.40;50.30;23.40;101366.00;;;;5084602;28;20078;-71
2022/08/02 08:39:45;;;;;;;4.35;1.85;;;24.30;50.30;23.40;101367.00;;;;5085373;28;20071;-72
2022/08/02 08:42:31;;;;;;;4.13;1.65;;;24.40;50.30;23.40;101369.00;;;;5083222;28;20048;-71
2022/08/02 08:45:17;;;;;;;3.47;1.70;;;24.40;50.30;23.40;101360.00;;;;5085752;28;20032;-72
2022/08/02 08:48:14;;;;;;;3.25;1.75;;;24.40;50.30;23.40;101358.00;;;;5085575;28;20036;-71
2022/08/02 08:51:06;;;;;;;5.32;2.05;;;24.40;50.40;23.40;101361.00;;;;5082553;28;20071;-71
2022/08/02 08:53:53;;;;;;;3.47;1.80;;;24.40;50.40;23.40;101357.00;;;;5067059;28;20036;-70
2022/08/02 08:56:39;;;;;;;2.63;1.55;;;24.40;50.30;23.50;101358.00;;;;5085707;28;20042;-70
2022/08/02 08:59:25;;;;;;;4.05;1.90;;;24.50;50.30;23.50;101357.00;;;;5060289;28;20028;-70
2022/08/02 09:02:11;;;;;;;3.83;2.00;;;24.40;50.30;23.50;101346.00;;;;5087022;28;20063;-70
2022/08/02 09:04:57;;;;;;;3.58;1.95;;;24.50;50.30;23.50;101346.00;;;;5057979;28;20041;-70
2022/08/02 09:07:47;;;;;;;4.30;2.00;;;24.50;50.30;23.50;101342.00;;;;5084151;28;20090;-70
2022/08/02 09:10:38;;;;;;;5.03;1.95;;;24.50;50.40;23.50;101336.00;;;;5084775;28;20610;-70
2022/08/02 09:13:50;;;;;;;3.03;1.40;;;24.50;50.40;23.50;101336.00;;;;5070681;28;20044;-70
2022/08/02 09:16:39;;;;;;;3.47;2.15;;;24.50;50.30;23.50;101338.00;;;;5073522;28;20115;-70
2022/08/02 09:19:25;;;;;;;3.22;1.77;;;24.50;50.30;23.50;101332.00;;;;5079368;28;20473;-70
2022/08/02 09:22:12;;;;;;;3.85;1.98;;;24.50;50.20;23.50;101334.00;;;;5082767;28;20484;-70
2022/08/02 09:24:58;;;;;;;4.88;1.83;;;24.50;50.10;23.50;101334.00;;;;5067925;28;20201;-70
2022/08/02 09:27:44;;;;;;;5.20;2.13;;;24.50;50.00;23.50;101326.00;;;;5085023;28;20040;-70
2022/08/02 09:30:30;;;;;;;1.88;1.23;;;24.50;50.10;23.50;101333.00;;;;5050890;28;20040;-70
2022/08/02 09:33:26;;;;;;;1.95;1.42;;;24.50;50.80;23.50;101329.00;;;;5064253;28;20101;-70
2022/08/02 09:36:14;;;;;;;4.20;1.77;;;24.40;49.60;23.50;101329.00;;;;5086054;28;20108;-70
2022/08/02 09:39:03;;;;;;;2.53;1.38;;;24.50;49.50;23.50;101338.00;;;;5069594;28;20766;-69
2022/08/02 09:41:49;;;;;;;4.20;1.50;;;24.60;49.70;23.50;101320.00;;;;5085704;28;20032;-70
2022/08/02 09:44:35;;;;;;;3.58;1.30;;;24.60;49.80;23.50;101331.00;;;;5082820;28;20036;-72
2022/08/02 09:47:25;;;;;;;2.97;1.13;;;24.60;49.80;23.50;101329.00;;;;5086031;28;20085;-72
2022/08/02 09:50:11;;;;;;;3.60;1.60;;;24.60;49.80;23.50;101336.00;;;;5069286;28;20039;-70
2022/08/02 09:52:57;;;;;;;3.65;1.42;;;24.60;49.70;23.50;101335.00;;;;5085746;28;20036;-70
2022/08/02 09:55:43;;;;;;;4.03;1.73;;;24.60;49.80;23.50;101326.00;;;;5072072;28;20036;-70
2022/08/02 09:58:29;;;;;;;3.15;1.27;;;24.60;49.70;23.50;101334.00;;;;5062430;28;20051;-70
2022/08/02 10:01:15;;;;;;;2.75;1.20;;;24.60;49.70;23.60;101330.00;;;;5067982;28;20040;-70
2022/08/02 10:04:04;;;;;;;3.35;1.30;;;24.60;49.80;23.60;101316.00;;;;5072091;28;20068;-70
2022/08/02 10:06:51;;;;;;;3.10;1.50;;;24.60;49.70;23.60;101322.00;;;;5056566;28;20562;-70
2022/08/02 10:09:37;;;;;;;2.47;1.40;;;24.60;49.60;23.60;101321.00;;;;5081117;28;20039;-70
2022/08/02 10:12:23;;;;;;;5.97;1.65;;;24.60;49.60;23.60;101327.00;;;;5073708;28;20044;-70
2022/08/02 10:15:09;;;;;;;1.75;1.23;;;24.60;49.50;23.60;101325.00;;;;5071691;28;20036;-70
2022/08/02 10:17:55;;;;;;;1.58;1.35;;;24.60;49.40;23.60;101324.00;;;;5054553;28;20481;-70
2022/08/02 10:20:43;;;;;;;3.88;1.70;;;24.60;49.40;23.60;101319.00;;;;5071216;28;20044;-70
2022/08/02 10:23:32;;;;;;;;;;;24.60;49.30;23.50;101314.00;;;;5071473;28;20047;-70
2022/08/02 10:26:19;;;;;;;;;;;24.70;49.70;23.50;101317.00;;;;5084237;28;19978;-70
2022/08/02 10:29:05;;;;;;;2.13;1.15;;;24.70;49.70;23.50;101320.00;;;;5083533;28;20006;-70
2022/08/02 10:32:09;;;;;;;3.13;1.50;;;24.80;49.50;23.50;101315.00;;;;5069446;28;20044;-70
2022/08/02 10:35:09;;;;;;;1.40;1.30;;;24.70;49.50;23.50;101308.00;;;;5054358;28;20032;-70
2022/08/02 10:37:59;;;;;;;4.10;1.58;;;24.70;49.30;23.60;101313.00;;;;5067854;28;20035;-70
2022/08/02 10:41:12;;;;;;;1.63;1.30;;;24.70;49.50;23.60;101305.00;;;;5059558;28;20039;-70
2022/08/02 10:43:59;;;;;;;3.75;1.50;;;24.70;49.60;23.60;101305.00;;;;5073971;28;20051;-70
2022/08/02 10:46:45;;;;;;;4.05;1.80;;;24.70;49.90;23.60;101296.00;;;;5072732;28;20481;-70
2022/08/02 10:49:31;;;;;;;2.85;1.55;;;24.70;49.80;23.60;101298.00;;;;5068474;28;20044;-70
2022/08/02 10:52:24;;;;;;;2.75;1.50;;;24.70;49.80;23.60;101303.00;;;;5069821;28;20051;-70
2022/08/02 10:55:11;;;;;;;3.33;1.58;;;24.70;49.90;23.60;101292.00;;;;5076988;28;20036;-70
2022/08/02 10:58:23;;;;;;;1.30;1.17;;;24.80;50.00;23.60;101289.00;;;;5068049;28;20155;-70
2022/08/02 11:01:42;;;;;;;1.63;1.40;;;24.80;50.10;23.60;101295.00;;;;5078451;28;20047;-70
2022/08/02 11:04:38;;;;;;;1.70;1.40;;;24.80;50.10;23.60;101284.00;;;;5083225;28;20040;-71
2022/08/02 11:07:39;;;;;;;2.10;1.70;;;24.80;50.10;23.60;101290.00;;;;5082843;28;20047;-70
2022/08/02 11:10:27;;;;;;;2.55;1.90;;;24.80;50.20;23.60;101290.00;;;;5068387;28;20086;-70
2022/08/02 11:13:18;;;;;;;5.78;2.20;;;24.80;50.10;23.70;101286.00;;;;5072101;28;20043;-70
2022/08/02 11:16:04;;;;;;;5.70;1.90;;;24.80;50.20;23.70;101289.00;;;;5069561;28;20039;-70
2022/08/02 11:18:50;;;;;;;4.38;2.10;;;24.80;50.20;23.70;101295.00;;;;5083186;28;20036;-70
2022/08/02 11:21:36;;;;;;;3.88;1.67;;;24.80;50.30;23.70;101279.00;;;;5094134;28;20063;-70
2022/08/02 11:24:30;;;;;;;2.03;1.77;;;24.80;50.40;23.70;101277.00;;;;5076352;28;20105;-70
2022/08/02 11:27:19;;;;;;;4.28;2.10;;;24.80;50.40;23.70;101278.00;;;;5089085;28;20074;-70
2022/08/02 11:30:11;;;;;;;2.28;2.05;;;24.80;50.50;23.70;101275.00;;;;5092572;28;20177;-70
2022/08/02 11:32:58;;;;;;;4.75;2.35;;;24.80;50.50;23.70;101281.00;;;;5077971;28;20646;-70
2022/08/02 11:35:44;;;;;;;2.10;1.75;;;24.80;50.40;23.70;101267.00;;;;5077673;28;20036;-71
2022/08/02 11:38:30;;;;;;;2.20;2.00;;;24.90;50.50;23.70;101274.00;;;;5072084;28;20039;-70
2022/08/02 11:41:20;;;;;;;2.78;2.20;;;24.80;50.50;23.70;101266.00;;;;5084317;28;20055;-70
2022/08/02 11:44:06;;;;;;;2.53;2.33;;;24.80;50.50;23.70;101263.00;;;;5079029;28;20104;-70
2022/08/02 11:47:00;;;;;;;4.22;2.53;;;24.90;50.70;23.80;101252.00;;;;5079464;28;20028;-70
2022/08/02 11:49:46;;;;;;;4.28;2.63;;;24.80;50.70;23.80;101255.00;;;;5085043;28;20056;-71
2022/08/02 11:52:33;;;;;;;4.18;3.00;;;24.90;50.70;23.80;101254.00;;;;5093050;28;20044;-70
2022/08/02 11:55:29;;;;;;;3.88;2.72;;;24.90;50.80;23.80;101253.00;;;;5088383;28;20040;-70
2022/08/02 11:58:16;;;;;;;3.40;2.80;;;24.90;50.80;23.80;101243.00;;;;5069996;28;20059;-70
2022/08/02 12:01:03;;;;;;;3.88;2.50;;;24.90;50.70;23.80;101244.00;;;;5084264;28;20115;-70
2022/08/02 12:03:49;;;;;;;3.22;2.78;;;25.00;50.80;23.80;101245.00;;;;5075167;28;20039;-70
2022/08/02 12:06:36;;;;;;;4.20;2.80;;;25.00;50.90;23.80;101238.00;;;;5071388;28;20052;-70
2022/08/02 12:09:22;;;;;;;2.55;2.35;;;24.90;50.90;23.80;101243.00;;;;5085557;28;20048;-70
2022/08/02 12:12:08;;;;;;;4.03;3.05;;;25.00;51.10;23.90;101232.00;;;;5087550;28;20044;-70
2022/08/02 12:14:54;;;;;;;3.50;2.55;;;25.00;51.10;23.80;101222.00;;;;5086028;28;20039;-70
2022/08/02 12:20:50;;;;;;;2.97;2.78;;;25.00;51.20;23.90;101231.00;;;;5078538;28;20031;-70
2022/08/02 12:23:42;;;;;;;2.67;2.47;;;25.00;51.30;23.90;101230.00;;;;5088015;28;20036;-70